Time;durP1;ratioP1;P1;durP2;ratioP2;P2;SDS_P1;SDS_P2;PMS_P1;PMS_P2;Temp;Humidity;BMP_temperature;BMP_pressure;BME280_temperature;BME280_humidity;BME280_pressure;Samples;Min_cycle;Max_cycle;Signal;HPM_P1;HPM_P2
2022/06/06 00:00:11;;;;;;;2.28;2.00;;;;;;;21.44;47.15;100234.84;6242216;22;20091;-62
2022/06/06 00:02:37;;;;;;;2.00;1.90;;;;;;;21.32;47.31;100241.13;6242108;22;20000;-63
2022/06/06 00:05:04;;;;;;;2.38;2.17;;;;;;;21.28;47.41;100240.69;6242006;22;20000;-63
2022/06/06 00:07:29;;;;;;;5.00;1.88;;;;;;;21.27;47.54;100247.19;6240159;23;20087;-63
2022/06/06 00:09:55;;;;;;;2.15;1.95;;;;;;;21.23;47.71;100245.91;6241833;22;20062;-64
2022/06/06 00:12:23;;;;;;;2.30;1.80;;;;;;;21.22;47.74;100248.84;6241925;23;20012;-63
2022/06/06 00:14:49;;;;;;;2.35;2.13;;;;;;;21.11;47.94;100253.00;6241716;22;20011;-63
2022/06/06 00:17:14;;;;;;;2.45;2.22;;;;;;;21.14;48.04;100259.94;6240037;23;20008;-62
2022/06/06 00:19:40;;;;;;;2.20;2.00;;;;;;;21.06;48.13;100250.06;6240136;23;20562;-63
2022/06/06 00:22:06;;;;;;;3.17;2.33;;;;;;;21.09;48.24;100282.34;6241954;22;20027;-62
2022/06/06 00:24:32;;;;;;;3.88;1.80;;;;;;;21.08;48.26;100274.38;6241759;22;20004;-62
2022/06/06 00:26:59;;;;;;;4.65;2.15;;;;;;;21.04;48.46;100263.06;6241591;22;20011;-63
2022/06/06 00:29:25;;;;;;;2.20;2.00;;;;;;;21.00;48.49;100255.47;6242137;22;20012;-65
2022/06/06 00:34:51;;;;;;;5.57;2.17;;;;;;;20.99;48.69;100253.81;6241755;23;20110;-63
2022/06/06 00:37:29;;;;;;;4.65;2.20;;;;;;;21.00;48.65;100271.84;6241578;22;20008;-64
2022/06/06 00:39:56;;;;;;;2.10;2.00;;;;;;;21.01;48.78;100278.97;6241663;22;20008;-63
2022/06/06 00:42:23;;;;;;;3.38;2.40;;;;;;;21.01;48.83;100287.16;6241549;22;20425;-63
2022/06/06 00:45:21;;;;;;;2.08;1.95;;;;;;;21.00;48.61;100290.94;6241724;22;20004;-63
2022/06/06 00:47:48;;;;;;;2.88;2.03;;;;;;;21.01;48.72;100292.59;6241834;22;20415;-62
2022/06/06 00:50:17;;;;;;;2.10;2.00;;;;;;;20.98;48.88;100290.28;6241491;22;20004;-63
2022/06/06 00:52:45;;;;;;;2.50;2.30;;;;;;;20.95;48.90;100291.53;6241742;22;20290;-63
2022/06/06 00:55:16;;;;;;;3.10;2.17;;;;;;;20.92;49.09;100282.91;6241642;22;20027;-64
2022/06/06 00:57:50;;;;;;;2.22;2.10;;;;;;;20.90;49.28;100276.78;6241516;22;20020;-63
2022/06/06 01:00:18;;;;;;;2.72;2.20;;;;;;;20.85;49.40;100274.66;6241551;22;20036;-64
2022/06/06 01:02:48;;;;;;;3.22;2.28;;;;;;;20.85;49.43;100271.09;6241545;22;20012;-63
2022/06/06 01:05:15;;;;;;;2.53;2.30;;;;;;;20.84;49.45;100255.78;6241462;22;20107;-62
2022/06/06 01:07:41;;;;;;;2.15;1.90;;;;;;;20.81;49.64;100245.28;6242260;22;20004;-63
2022/06/06 01:10:07;;;;;;;2.33;2.22;;;;;;;20.77;49.91;100239.41;6243416;22;20414;-64
2022/06/06 01:12:33;;;;;;;3.75;2.25;;;;;;;20.74;49.98;100225.31;6243227;22;20079;-64
2022/06/06 01:15:05;;;;;;;2.25;2.05;;;;;;;20.59;50.17;100205.53;6243424;22;20007;-64
2022/06/06 01:18:05;;;;;;;3.40;2.22;;;;;;;20.61;50.49;100211.63;6241509;23;20173;-61
2022/06/06 01:20:53;;;;;;;6.03;2.55;;;;;;;20.55;50.63;100198.81;6243404;22;20008;-61
2022/06/06 01:23:37;;;;;;;4.20;2.20;;;;;;;20.43;51.01;100195.81;6241590;23;20012;-61
2022/06/06 01:26:30;;;;;;;2.45;2.08;;;;;;;20.35;51.22;100204.16;6243088;23;20000;-62
2022/06/06 01:29:24;;;;;;;4.30;2.55;;;;;;;20.33;51.38;100206.22;6241790;23;20451;-61
2022/06/06 01:31:58;;;;;;;4.25;1.90;;;;;;;20.30;51.36;100203.03;6243344;22;20341;-64
2022/06/06 01:34:27;;;;;;;2.28;2.17;;;;;;;20.27;51.57;100203.44;6243299;22;20452;-64
2022/06/06 01:36:55;;;;;;;5.25;2.72;;;;;;;20.23;51.56;100210.34;6243066;22;20007;-64
2022/06/06 01:39:23;;;;;;;2.63;2.35;;;;;;;20.22;51.63;100223.13;6242947;22;20079;-64
2022/06/06 01:42:08;;;;;;;2.55;2.13;;;;;;;20.17;52.03;100231.91;6242994;22;20063;-62
2022/06/06 01:44:49;;;;;;;4.90;2.40;;;;;;;20.15;52.14;100238.56;6243146;22;20074;-62
2022/06/06 01:47:23;;;;;;;4.20;2.47;;;;;;;20.12;52.45;100239.81;6241349;23;20425;-62
2022/06/06 01:49:50;;;;;;;4.00;2.20;;;;;;;20.09;52.50;100256.50;6242755;22;20000;-62
2022/06/06 01:52:16;;;;;;;3.78;2.30;;;;;;;20.06;52.79;100273.22;6242880;22;20325;-62
2022/06/06 01:54:42;;;;;;;2.70;2.47;;;;;;;20.06;52.42;100283.31;6243104;22;20004;-62
2022/06/06 01:57:11;;;;;;;3.10;2.17;;;;;;;20.01;52.72;100283.03;6242947;22;20008;-62
2022/06/06 01:59:37;;;;;;;2.75;2.10;;;;;;;19.96;53.09;100293.69;6242682;22;20027;-62
2022/06/06 02:02:03;;;;;;;2.58;2.22;;;;;;;19.84;53.42;100285.22;6242985;22;20425;-62
2022/06/06 02:04:29;;;;;;;3.08;2.78;;;;;;;19.86;53.70;100304.88;6242856;22;20596;-62
2022/06/06 02:06:55;;;;;;;2.85;2.55;;;;;;;19.84;53.71;100315.16;6243140;22;20088;-62
2022/06/06 02:09:21;;;;;;;3.92;2.40;;;;;;;19.81;54.03;100315.53;6242964;22;19996;-62
2022/06/06 02:11:47;;;;;;;2.92;2.42;;;;;;;19.66;54.11;100303.00;6242701;22;20012;-62
2022/06/06 02:14:12;;;;;;;4.15;2.17;;;;;;;19.71;54.69;100320.47;6242641;22;20409;-63
2022/06/06 02:16:38;;;;;;;7.47;2.60;;;;;;;19.68;55.08;100319.97;6242776;22;20004;-62
2022/06/06 02:19:05;;;;;;;3.38;3.08;;;;;;;19.68;55.19;100322.72;6240692;23;20396;-62
2022/06/06 02:21:31;;;;;;;4.68;2.97;;;;;;;19.65;55.39;100313.06;6242678;22;20014;-63
2022/06/06 02:23:56;;;;;;;6.15;2.88;;;;;;;19.64;55.66;100316.78;6242763;22;20035;-63
2022/06/06 02:26:22;;;;;;;2.80;2.60;;;;;;;19.64;55.83;100324.97;6242532;22;20030;-62
2022/06/06 02:28:48;;;;;;;3.67;3.03;;;;;;;19.60;56.17;100312.78;6242692;22;20011;-64
2022/06/06 02:31:13;;;;;;;4.65;2.75;;;;;;;19.57;56.16;100313.16;6242558;22;20165;-62
2022/06/06 02:33:39;;;;;;;3.22;2.80;;;;;;;19.55;56.23;100303.50;6240748;23;20008;-62
2022/06/06 02:36:05;;;;;;;5.13;2.75;;;;;;;19.53;56.36;100303.72;6242648;22;20062;-62
2022/06/06 02:38:32;;;;;;;5.50;2.88;;;;;;;19.51;56.45;100294.06;6242489;22;20004;-62
2022/06/06 02:41:07;;;;;;;2.97;2.70;;;;;;;19.46;56.45;100278.31;6243016;22;20078;-62
2022/06/06 02:43:36;;;;;;;3.55;2.70;;;;;;;19.44;56.54;100288.53;6242364;22;19999;-63
2022/06/06 02:46:03;;;;;;;5.78;3.40;;;;;;;19.42;56.87;100289.75;6241942;22;20023;-62
2022/06/06 02:48:30;;;;;;;5.05;2.88;;;;;;;19.41;56.88;100296.25;6241752;22;20000;-62
2022/06/06 02:50:56;;;;;;;2.60;2.40;;;;;;;19.35;56.87;100291.56;6242043;22;20083;-62
2022/06/06 02:53:22;;;;;;;2.90;2.70;;;;;;;19.34;57.18;100298.88;6241852;22;20467;-62
2022/06/06 02:55:50;;;;;;;3.78;3.25;;;;;;;19.29;57.25;100295.91;6242012;22;20062;-63
2022/06/06 02:58:16;;;;;;;5.43;3.08;;;;;;;19.24;57.66;100290.16;6241737;22;20463;-63
2022/06/06 03:00:43;;;;;;;4.45;3.20;;;;;;;19.16;58.08;100282.13;6240220;23;20004;-62
2022/06/06 03:03:09;;;;;;;3.38;3.00;;;;;;;19.19;58.59;100294.47;6242066;22;20007;-63
2022/06/06 03:05:53;;;;;;;4.88;3.40;;;;;;;19.12;58.98;100297.09;6241895;22;20004;-63
2022/06/06 03:08:37;;;;;;;;;;;;;;;19.14;59.59;100303.19;6242642;22;20000;-62
2022/06/06 03:11:17;;;;;;;4.65;3.30;;;;;;;19.15;58.66;100323.09;6241994;23;19927;-62
2022/06/06 03:14:09;;;;;;;5.60;3.20;;;;;;;19.07;58.98;100323.19;6241781;22;20028;-62
2022/06/06 03:22:54;;;;;;;3.10;2.80;;;;;;;19.02;59.69;100378.09;6241821;23;20033;-62
2022/06/06 03:25:36;;;;;;;3.45;2.72;;;;;;;19.06;59.28;100375.88;6241606;23;20142;-63
2022/06/06 03:28:09;;;;;;;4.60;3.20;;;;;;;18.98;60.52;100365.06;6241565;22;20015;-63
2022/06/06 03:31:03;;;;;;;3.80;3.50;;;;;;;18.87;61.28;100349.25;6241307;22;20004;-63
2022/06/06 03:33:46;;;;;;;3.83;3.35;;;;;;;18.94;61.08;100361.91;6241728;22;20058;-63
2022/06/06 03:36:21;;;;;;;3.35;3.05;;;;;;;18.95;60.29;100388.03;6241205;22;20110;-62
2022/06/06 03:39:04;;;;;;;3.28;2.97;;;;;;;18.97;60.77;100396.88;6239670;23;20055;-63
2022/06/06 03:41:32;;;;;;;3.97;3.67;;;;;;;18.86;61.32;100400.03;6241714;22;20008;-63
2022/06/06 03:44:11;;;;;;;7.68;3.33;;;;;;;18.74;61.93;100389.81;6241641;23;20424;-63
2022/06/06 03:47:08;;;;;;;4.45;4.00;;;;;;;18.78;62.78;100394.69;6241309;22;20000;-62
2022/06/06 03:50:02;;;;;;;4.20;3.80;;;;;;;18.76;62.81;100388.59;6236960;23;20050;-63
2022/06/06 03:52:47;;;;;;;5.30;3.60;;;;;;;18.79;63.07;100381.94;6241374;22;20004;-63
2022/06/06 03:55:49;;;;;;;5.95;3.95;;;;;;;18.81;63.45;100356.28;6241104;22;20008;-63
2022/06/06 03:58:17;;;;;;;5.85;3.80;;;;;;;18.80;63.83;100349.13;6241336;22;20019;-63
2022/06/06 04:00:46;;;;;;;4.18;3.78;;;;;;;18.88;63.34;100354.50;6241290;23;20028;-63
2022/06/06 04:03:14;;;;;;;5.10;4.22;;;;;;;18.87;63.96;100350.09;6241227;22;20031;-63
2022/06/06 04:05:40;;;;;;;5.30;4.10;;;;;;;18.92;63.87;100363.09;6241078;22;20008;-63
2022/06/06 04:08:08;;;;;;;5.22;3.72;;;;;;;18.87;63.77;100344.66;6241287;22;20008;-62
2022/06/06 04:11:01;;;;;;;4.90;3.90;;;;;;;18.95;64.52;100335.53;6241281;22;20000;-63
2022/06/06 04:13:32;;;;;;;4.63;4.25;;;;;;;18.94;65.34;100328.44;6241629;23;20027;-63
2022/06/06 04:16:13;;;;;;;6.25;4.57;;;;;;;18.88;65.69;100308.28;6240989;23;20359;-63
2022/06/06 04:19:01;;;;;;;6.43;4.65;;;;;;;18.98;65.59;100329.75;6240974;22;20007;-62
2022/06/06 04:21:29;;;;;;;8.38;4.22;;;;;;;19.02;65.15;100340.06;6241255;22;20004;-63
2022/06/06 04:24:23;;;;;;;4.68;4.28;;;;;;;19.07;65.72;100350.38;6241377;22;20008;-63
2022/06/06 04:27:18;;;;;;;5.45;4.25;;;;;;;19.14;65.50;100348.56;6211654;22;20076;-63
2022/06/06 04:30:01;;;;;;;4.82;4.10;;;;;;;19.11;65.07;100332.63;6239702;23;20095;-63
2022/06/06 04:32:42;;;;;;;5.63;4.72;;;;;;;19.17;66.02;100343.63;6241025;22;20391;-63
2022/06/06 04:35:39;;;;;;;5.85;4.68;;;;;;;19.22;66.49;100337.59;6241163;22;20046;-63
2022/06/06 04:38:10;;;;;;;5.75;4.22;;;;;;;19.18;66.33;100323.53;6204162;22;20087;-63
2022/06/06 04:41:07;;;;;;;4.90;3.97;;;;;;;19.24;66.15;100328.22;6240995;22;20000;-63
2022/06/06 04:43:40;;;;;;;6.68;4.47;;;;;;;19.25;66.40;100324.47;6226158;22;20016;-63
2022/06/06 04:46:25;;;;;;;8.13;4.70;;;;;;;19.25;66.27;100320.91;6243289;22;20026;-63
2022/06/06 04:48:52;;;;;;;5.13;4.63;;;;;;;19.24;66.19;100313.78;6241870;23;20007;-63
2022/06/06 04:51:20;;;;;;;5.65;5.00;;;;;;;19.27;66.21;100325.16;6242705;22;20029;-63
2022/06/06 04:53:51;;;;;;;5.20;4.70;;;;;;;19.27;66.11;100338.75;6243121;22;20004;-63
2022/06/06 04:56:18;;;;;;;9.38;4.70;;;;;;;19.32;66.37;100343.63;6243181;22;20439;-62
2022/06/06 04:58:48;;;;;;;4.47;4.07;;;;;;;19.37;65.81;100350.19;6242825;22;20433;-62
2022/06/06 05:01:14;;;;;;;5.88;4.68;;;;;;;19.40;66.00;100354.38;6243311;22;20010;-62
2022/06/06 05:03:39;;;;;;;5.22;4.72;;;;;;;19.46;65.48;100362.66;6242795;22;20456;-64
2022/06/06 05:06:26;;;;;;;5.00;4.55;;;;;;;19.50;65.02;100387.56;6243450;22;20062;-63
2022/06/06 05:09:13;;;;;;;4.63;4.07;;;;;;;19.60;64.55;100410.75;6242961;22;20030;-63
2022/06/06 05:12:03;;;;;;;7.30;4.25;;;;;;;19.61;64.81;100414.31;6242993;23;20445;-63
2022/06/06 05:14:51;;;;;;;5.55;3.58;;;;;;;19.65;64.67;100423.78;6240577;23;20019;-63
2022/06/06 05:17:38;;;;;;;4.22;3.83;;;;;;;19.67;64.51;100424.44;6242835;22;20004;-63
2022/06/06 05:20:35;;;;;;;5.90;3.83;;;;;;;19.73;64.85;100434.53;6242788;23;20421;-63
2022/06/06 05:23:29;;;;;;;5.43;3.85;;;;;;;19.75;65.13;100433.34;6241232;23;20080;-63
2022/06/06 05:26:28;;;;;;;6.53;4.10;;;;;;;19.66;65.86;100418.16;6242856;22;20015;-63
2022/06/06 05:29:22;;;;;;;5.53;4.00;;;;;;;19.80;65.93;100424.59;6240964;23;20128;-64
2022/06/06 05:31:47;;;;;;;4.70;4.30;;;;;;;19.94;65.81;100416.41;6242285;23;20004;-62
2022/06/06 05:34:21;;;;;;;5.30;4.45;;;;;;;19.98;65.58;100398.63;6242440;23;20008;-63
2022/06/06 05:37:17;;;;;;;4.50;3.83;;;;;;;20.27;65.30;100410.47;6242418;22;20318;-63
2022/06/06 05:40:06;;;;;;;5.10;4.25;;;;;;;20.54;64.23;100406.97;6242360;23;20004;-63
2022/06/06 05:42:44;;;;;;;4.97;4.20;;;;;;;20.82;63.27;100410.53;6242430;23;20007;-62
2022/06/06 05:45:34;;;;;;;3.08;2.88;;;;;;;21.12;63.17;100417.53;6240960;23;20110;-62
2022/06/06 05:48:18;;;;;;;4.25;3.85;;;;;;;21.47;62.28;100413.75;6242611;22;20008;-63
2022/06/06 05:50:52;;;;;;;6.45;4.13;;;;;;;21.74;60.41;100408.19;6242570;23;20007;-63
2022/06/06 05:53:48;;;;;;;4.38;3.95;;;;;;;21.94;59.65;100406.41;6242094;23;20387;-63
2022/06/06 05:56:25;;;;;;;4.25;3.80;;;;;;;22.10;58.77;100411.50;6242405;23;20000;-63
2022/06/06 05:59:16;;;;;;;3.60;3.30;;;;;;;22.19;58.31;100414.88;6240676;23;20027;-63
2022/06/06 06:01:44;;;;;;;3.88;3.50;;;;;;;22.26;57.53;100407.53;6227054;22;20086;-63
2022/06/06 06:04:32;;;;;;;5.40;3.85;;;;;;;22.29;57.18;100409.84;6242289;22;20110;-63
2022/06/06 06:07:24;;;;;;;12.35;4.10;;;;;;;22.28;56.48;100416.38;6240764;23;20004;-63
2022/06/06 06:10:14;;;;;;;5.05;3.97;;;;;;;22.31;56.66;100416.78;6242249;23;20000;-66
2022/06/06 06:13:04;;;;;;;4.20;3.80;;;;;;;22.30;56.70;100406.03;6242527;22;20384;-66
2022/06/06 06:15:37;;;;;;;4.70;3.85;;;;;;;22.31;56.52;100403.09;6239349;22;20464;-66
2022/06/06 06:18:09;;;;;;;3.78;3.47;;;;;;;22.23;56.06;100400.59;6240045;22;20004;-66
2022/06/06 06:20:41;;;;;;;5.63;4.07;;;;;;;22.22;56.62;100404.34;6237405;22;20008;-66
2022/06/06 06:23:13;;;;;;;5.70;3.90;;;;;;;22.28;56.10;100395.31;6238349;23;20035;-65
2022/06/06 06:25:41;;;;;;;4.72;3.80;;;;;;;22.26;56.31;100383.78;6239364;23;20438;-65
2022/06/06 06:28:10;;;;;;;4.22;3.80;;;;;;;22.38;56.06;100391.34;6240505;22;20023;-66
2022/06/06 06:30:46;;;;;;;3.95;3.50;;;;;;;22.50;55.41;100393.28;6241012;22;20008;-66
2022/06/06 06:33:30;;;;;;;5.47;3.95;;;;;;;22.63;54.93;100397.91;6240445;22;20011;-65
2022/06/06 06:36:17;;;;;;;3.80;3.50;;;;;;;22.65;54.79;100380.25;6238296;23;20004;-65
2022/06/06 06:39:20;;;;;;;4.32;3.92;;;;;;;22.90;54.89;100400.44;6240334;22;20087;-66
2022/06/06 06:42:07;;;;;;;7.40;3.75;;;;;;;23.02;53.57;100403.34;6239502;22;20004;-66
2022/06/06 06:44:40;;;;;;;4.47;3.00;;;;;;;23.05;53.72;100395.56;6240635;23;20020;-66
2022/06/06 06:47:11;;;;;;;4.13;3.30;;;;;;;23.16;53.36;100394.91;6238501;22;20075;-66
2022/06/06 06:49:39;;;;;;;3.75;3.35;;;;;;;23.24;53.18;100394.69;6238522;23;20014;-65
2022/06/06 06:52:29;;;;;;;4.40;3.22;;;;;;;23.28;52.99;100395.94;6237853;22;20015;-66
2022/06/06 06:55:16;;;;;;;3.58;3.28;;;;;;;23.37;52.90;100400.16;6239986;23;20018;-66
2022/06/06 06:58:01;;;;;;;3.85;3.53;;;;;;;23.49;53.53;100386.63;6239762;22;20515;-66
2022/06/06 07:00:34;;;;;;;4.40;3.28;;;;;;;23.65;53.12;100389.72;6238788;23;20111;-66
2022/06/06 07:09:15;;;;;;;3.17;2.95;;;;;;;23.95;51.48;100388.13;6240222;22;20057;-66
2022/06/06 07:12:12;;;;;;;3.63;3.25;;;;;;;24.06;51.01;100376.44;6240389;23;20075;-66
2022/06/06 07:15:02;;;;;;;3.55;3.10;;;;;;;24.25;50.47;100377.41;6238461;23;20039;-65
2022/06/06 07:17:33;;;;;;;10.40;3.40;;;;;;;24.34;50.37;100373.31;6238517;23;20050;-65
2022/06/06 07:20:05;;;;;;;7.78;3.47;;;;;;;24.48;49.59;100381.22;6238464;22;20011;-65
2022/06/06 07:22:59;;;;;;;5.47;3.13;;;;;;;24.52;49.65;100380.78;6240290;22;20008;-66
2022/06/06 07:25:22;;;;;;;4.40;3.00;;;;;;;24.55;49.19;100383.94;6239814;22;20376;-65
2022/06/06 07:27:47;;;;;;;3.60;3.10;;;;;;;24.55;49.25;100377.59;6239842;22;20004;-67
2022/06/06 07:30:17;;;;;;;4.05;3.30;;;;;;;24.48;49.19;100370.25;6240097;22;20089;-64
2022/06/06 07:33:18;;;;;;;5.25;3.17;;;;;;;24.26;49.69;100337.97;6240451;22;20547;-72
2022/06/06 07:36:00;;;;;;;2.97;2.78;;;;;;;24.39;49.78;100359.78;6237797;23;20014;-72
2022/06/06 07:38:46;;;;;;;5.88;2.90;;;;;;;24.55;49.55;100372.09;6240766;22;20379;-73
2022/06/06 07:41:19;;;;;;;4.55;3.13;;;;;;;24.64;49.51;100365.31;6240625;22;20008;-73
2022/06/06 07:44:03;;;;;;;3.50;3.20;;;;;;;24.73;49.63;100372.19;6238832;23;20019;-72
2022/06/06 07:47:06;;;;;;;4.63;2.80;;;;;;;24.87;48.53;100371.84;6240450;22;20042;-72
2022/06/06 07:49:46;;;;;;;5.78;2.88;;;;;;;24.92;48.49;100382.16;6238460;23;20106;-72
2022/06/06 07:52:44;;;;;;;3.40;2.97;;;;;;;24.96;48.16;100380.63;6240797;22;20004;-72
2022/06/06 07:55:31;;;;;;;5.45;2.85;;;;;;;25.01;48.16;100367.06;6238501;22;20012;-72
2022/06/06 07:58:11;;;;;;;4.43;3.15;;;;;;;25.14;48.15;100367.75;6239784;22;20020;-72
2022/06/06 08:00:38;;;;;;;3.92;2.85;;;;;;;25.31;47.65;100373.53;6240744;22;20016;-70
2022/06/06 08:03:37;;;;;;;4.55;2.50;;;;;;;25.41;47.43;100384.84;6237619;23;20091;-73
2022/06/06 08:06:12;;;;;;;2.85;2.65;;;;;;;25.55;46.94;100389.09;6239925;22;20494;-72
2022/06/06 08:08:40;;;;;;;4.30;2.78;;;;;;;25.61;46.89;100380.78;6240950;22;20079;-72
2022/06/06 08:11:19;;;;;;;4.20;3.00;;;;;;;25.74;46.65;100393.50;6238650;22;20007;-73
2022/06/06 08:14:22;;;;;;;2.88;2.67;;;;;;;25.91;45.65;100394.53;6240405;22;20341;-71
2022/06/06 08:16:54;;;;;;;4.18;2.83;;;;;;;25.91;46.00;100383.53;6238538;23;20091;-72
2022/06/06 08:19:48;;;;;;;5.38;2.63;;;;;;;25.93;46.32;100390.47;6240234;23;20086;-72
2022/06/06 08:22:15;;;;;;;5.75;3.15;;;;;;;25.97;46.25;100401.88;6218907;23;20004;-71
2022/06/06 08:24:47;;;;;;;4.28;2.88;;;;;;;25.88;46.16;100395.84;6242791;22;20004;-71
2022/06/06 08:27:15;;;;;;;4.15;3.15;;;;;;;25.89;46.34;100399.44;6242627;22;20004;-72
2022/06/06 08:29:43;;;;;;;2.70;2.50;;;;;;;25.93;46.36;100406.97;6242825;22;20066;-72
2022/06/06 08:32:10;;;;;;;4.95;2.53;;;;;;;26.03;45.82;100417.47;6242797;22;20084;-72
2022/06/06 08:34:37;;;;;;;3.28;3.00;;;;;;;26.15;45.71;100413.69;6241178;23;20008;-73
2022/06/06 08:37:18;;;;;;;2.75;2.55;;;;;;;26.21;45.43;100409.16;6240944;23;20317;-70
2022/06/06 08:39:59;;;;;;;3.17;2.72;;;;;;;26.31;45.19;100420.47;6240946;23;20000;-72
2022/06/06 08:42:33;;;;;;;2.92;2.50;;;;;;;26.39;45.56;100420.09;6241549;23;20465;-73
2022/06/06 08:45:03;;;;;;;2.25;2.15;;;;;;;26.57;45.45;100417.31;6240341;23;20449;-73
2022/06/06 08:47:54;;;;;;;3.08;2.88;;;;;;;26.72;44.98;100420.44;6242288;22;20007;-72
2022/06/06 08:50:51;;;;;;;3.95;2.90;;;;;;;26.86;44.20;100421.09;6221156;22;20441;-72
2022/06/06 08:53:35;;;;;;;3.03;2.83;;;;;;;26.99;43.84;100420.84;6240596;22;20463;-73
2022/06/06 08:56:15;;;;;;;3.63;3.10;;;;;;;27.08;43.61;100422.19;6240208;23;20378;-72
2022/06/06 08:58:44;;;;;;;2.90;2.70;;;;;;;27.15;43.56;100428.41;6242536;22;20024;-72
2022/06/06 09:01:39;;;;;;;2.95;2.70;;;;;;;27.22;43.27;100421.69;6240952;23;20400;-73
2022/06/06 09:04:11;;;;;;;3.95;2.45;;;;;;;27.32;43.25;100429.38;6240145;23;20019;-73
2022/06/06 09:07:11;;;;;;;2.80;2.60;;;;;;;27.41;43.03;100427.94;6240846;23;20066;-73
2022/06/06 09:10:01;;;;;;;2.88;2.40;;;;;;;27.50;42.54;100421.81;6242489;22;20027;-73
2022/06/06 09:12:45;;;;;;;5.30;3.50;;;;;;;27.58;41.79;100424.22;6242387;23;20071;-73
2022/06/06 09:15:38;;;;;;;2.78;2.58;;;;;;;27.63;41.58;100415.22;6242006;22;20024;-73
2022/06/06 09:18:29;;;;;;;5.03;3.00;;;;;;;27.65;41.17;100421.31;6241287;22;20000;-73
2022/06/06 09:21:01;;;;;;;4.00;2.45;;;;;;;27.55;41.19;100416.44;6239721;23;20593;-73
2022/06/06 09:24:00;;;;;;;3.75;2.38;;;;;;;27.54;41.35;100408.41;6243040;22;20130;-71
2022/06/06 09:26:52;;;;;;;3.70;2.47;;;;;;;27.44;41.56;100411.75;6240766;23;20004;-71
2022/06/06 09:29:56;;;;;;;2.63;2.42;;;;;;;27.44;41.04;100419.19;6224829;22;20026;-70
2022/06/06 09:32:52;;;;;;;3.05;2.72;;;;;;;27.42;41.38;100416.69;6240113;23;20087;-73
2022/06/06 09:35:44;;;;;;;2.55;2.35;;;;;;;27.42;41.46;100408.41;6241863;22;20151;-70
2022/06/06 09:38:27;;;;;;;3.22;2.38;;;;;;;27.45;41.28;100404.34;6242573;23;20388;-71
2022/06/06 09:40:58;;;;;;;5.10;3.10;;;;;;;27.45;41.50;100413.44;6241006;22;20161;-71
2022/06/06 09:43:54;;;;;;;3.05;2.65;;;;;;;27.43;41.54;100398.22;6242038;22;20004;-71
2022/06/06 09:46:40;;;;;;;3.42;2.88;;;;;;;27.51;41.89;100406.97;6263903;22;20513;-73
2022/06/06 09:49:29;;;;;;;4.13;2.30;;;;;;;27.56;41.79;100401.56;6240688;22;20000;-73
2022/06/06 09:52:19;;;;;;;2.80;2.30;;;;;;;27.37;41.86;100372.47;6234165;23;20027;-63
2022/06/06 10:02:05;;;;;;;5.25;2.75;;;;;;;27.39;42.14;100397.88;6241043;22;20483;-63
2022/06/06 10:04:50;;;;;;;2.75;2.03;;;;;;;27.31;42.19;100395.47;6241314;22;20459;-63
2022/06/06 10:07:40;;;;;;;4.30;2.30;;;;;;;27.25;41.38;100401.97;6241419;22;20008;-63
2022/06/06 10:10:40;;;;;;;2.40;2.20;;;;;;;27.06;40.45;100394.88;6239825;23;20325;-63
2022/06/06 10:13:14;;;;;;;2.80;2.00;;;;;;;27.03;39.92;100400.03;6240519;22;20078;-62
2022/06/06 10:16:17;;;;;;;5.95;2.55;;;;;;;27.04;40.93;100397.03;6241287;23;20007;-62
2022/06/06 10:18:58;;;;;;;2.97;2.20;;;;;;;27.06;40.80;100394.03;6240456;22;20571;-63
2022/06/06 10:21:32;;;;;;;4.32;2.35;;;;;;;27.15;40.37;100385.16;6241531;22;20008;-65
2022/06/06 10:24:25;;;;;;;2.92;2.15;;;;;;;27.24;40.17;100381.00;6240488;22;20451;-65
2022/06/06 10:27:07;;;;;;;2.35;2.15;;;;;;;27.38;40.75;100378.84;6238996;23;20008;-64
2022/06/06 10:32:55;;;;;;;2.42;2.22;;;;;;;27.52;40.20;100369.22;6240617;23;20455;-63
2022/06/06 10:35:45;;;;;;;4.15;2.70;;;;;;;27.49;40.05;100361.44;6241099;23;20079;-65
2022/06/06 10:38:35;;;;;;;4.05;2.67;;;;;;;27.41;40.37;100354.41;6240721;22;20007;-64
2022/06/06 10:41:09;;;;;;;3.50;2.40;;;;;;;27.45;40.46;100354.72;6240240;23;20039;-65
2022/06/06 10:43:40;;;;;;;2.50;2.30;;;;;;;27.45;40.89;100352.81;6240718;22;20004;-64
2022/06/06 10:46:23;;;;;;;4.22;2.35;;;;;;;27.48;40.77;100355.09;6238840;23;20058;-65
2022/06/06 10:49:08;;;;;;;4.05;2.22;;;;;;;27.59;40.15;100354.22;6239970;22;20008;-64
2022/06/06 10:51:52;;;;;;;4.38;2.35;;;;;;;27.55;39.50;100355.78;6241244;22;20443;-65
2022/06/06 10:54:52;;;;;;;2.25;2.05;;;;;;;27.55;39.38;100350.28;6239206;23;20003;-64
2022/06/06 10:57:59;;;;;;;6.25;2.20;;;;;;;27.54;39.43;100347.75;6241064;23;20023;-65
2022/06/06 11:00:36;;;;;;;5.32;2.50;;;;;;;27.56;39.92;100345.59;6240797;22;20066;-65
2022/06/06 11:03:33;;;;;;;2.58;2.38;;;;;;;27.61;39.91;100343.78;6240188;23;20369;-64
2022/06/06 11:06:08;;;;;;;4.32;1.90;;;;;;;27.61;39.13;100338.28;6240569;22;20000;-65
2022/06/06 11:08:43;;;;;;;2.20;2.00;;;;;;;27.69;39.61;100337.88;6241314;22;20329;-65
2022/06/06 11:11:35;;;;;;;2.25;2.05;;;;;;;27.82;38.97;100347.81;6240950;22;20015;-66
2022/06/06 11:14:27;;;;;;;2.78;2.10;;;;;;;27.85;38.78;100344.56;6224069;23;20008;-65
2022/06/06 11:17:13;;;;;;;3.33;1.75;;;;;;;27.91;38.50;100336.16;6192630;22;20008;-64
2022/06/06 11:20:08;;;;;;;2.67;1.95;;;;;;;27.91;38.32;100333.41;6240377;23;20016;-65
2022/06/06 11:23:03;;;;;;;2.63;1.80;;;;;;;27.87;37.37;100346.00;6240583;22;20007;-65
2022/06/06 11:25:40;;;;;;;3.10;1.80;;;;;;;27.82;37.87;100334.84;6228084;22;20003;-65
2022/06/06 11:28:17;;;;;;;2.00;1.90;;;;;;;27.85;38.12;100342.66;6240643;22;20010;-64
2022/06/06 11:31:01;;;;;;;2.47;2.28;;;;;;;27.84;38.18;100334.59;6239822;22;20015;-65
2022/06/06 11:33:48;;;;;;;2.75;2.05;;;;;;;27.85;37.62;100336.28;6240316;23;20031;-64
2022/06/06 11:36:23;;;;;;;1.80;1.70;;;;;;;27.88;37.16;100333.88;6240434;22;19996;-65
2022/06/06 11:39:19;;;;;;;3.78;1.70;;;;;;;27.94;36.96;100330.16;6240239;23;20004;-65
2022/06/06 11:42:06;;;;;;;1.77;1.40;;;;;;;28.03;37.06;100331.44;6240049;22;20007;-65
2022/06/06 11:45:06;;;;;;;2.40;2.20;;;;;;;28.12;37.58;100337.38;6238847;23;20053;-65
2022/06/06 11:47:50;;;;;;;2.03;1.85;;;;;;;28.14;37.65;100330.50;6239709;22;20008;-65
2022/06/06 11:50:45;;;;;;;2.33;2.10;;;;;;;28.13;37.80;100331.59;6239060;23;20018;-65
2022/06/06 11:53:10;;;;;;;;;;;;;;;28.16;37.84;100330.25;6240683;22;20012;-64
2022/06/06 11:56:03;;;;;;;1.90;1.80;;;;;;;28.19;37.17;100322.34;6240467;23;19903;-65
2022/06/06 11:59:03;;;;;;;2.83;1.92;;;;;;;28.20;37.30;100324.00;6239685;22;20024;-65
2022/06/06 12:02:01;;;;;;;2.10;1.90;;;;;;;28.15;37.26;100318.38;6239962;23;20026;-65
2022/06/06 12:04:45;;;;;;;2.15;1.90;;;;;;;28.19;37.75;100311.31;6240259;22;20008;-65
2022/06/06 12:07:38;;;;;;;2.20;2.00;;;;;;;28.17;37.15;100307.09;6240244;23;20027;-65
2022/06/06 12:10:25;;;;;;;2.67;1.90;;;;;;;28.05;36.54;100301.66;6238316;23;20047;-64
2022/06/06 12:13:15;;;;;;;3.88;2.30;;;;;;;28.00;37.64;100311.75;6239837;22;20475;-65
2022/06/06 12:16:02;;;;;;;2.30;2.10;;;;;;;28.11;37.42;100303.44;6239899;22;20727;-65
2022/06/06 12:18:54;;;;;;;2.67;1.70;;;;;;;28.08;37.93;100303.91;6239706;22;20158;-65
2022/06/06 12:21:37;;;;;;;4.20;1.98;;;;;;;28.20;37.42;100304.69;6240754;22;20266;-64
2022/06/06 12:24:34;;;;;;;2.10;1.95;;;;;;;28.26;37.28;100291.81;6239953;22;20084;-65
2022/06/06 12:27:24;;;;;;;2.30;1.75;;;;;;;28.35;37.13;100307.72;6234843;23;20012;-65
2022/06/06 12:30:17;;;;;;;2.70;1.83;;;;;;;28.36;36.09;100292.84;6236990;22;20023;-64
2022/06/06 12:32:45;;;;;;;2.10;1.80;;;;;;;28.35;36.51;100295.84;6237310;22;20030;-64
2022/06/06 12:35:17;;;;;;;3.22;2.00;;;;;;;28.23;35.96;100284.88;6237602;23;20031;-64
2022/06/06 12:37:58;;;;;;;1.90;1.67;;;;;;;28.19;36.39;100285.63;6239004;22;20007;-65
2022/06/06 12:40:43;;;;;;;2.40;1.92;;;;;;;28.12;36.37;100279.44;6239477;22;20046;-65
2022/06/06 12:43:24;;;;;;;1.60;1.50;;;;;;;28.16;36.32;100278.69;6239713;22;20348;-65
2022/06/06 12:46:17;;;;;;;2.15;1.83;;;;;;;28.25;35.66;100282.69;6237734;22;20078;-64
2022/06/06 12:49:05;;;;;;;1.75;1.63;;;;;;;28.24;35.55;100278.28;6239206;23;20937;-65